Terminal Aerodrome Forecast
Issued by NWS Central Illinois

Home | Current Version | Previous Version | Text Only | Print | Product List | Glossary On
Versions: 1 2 3 4 5 6 7 8 9 10 11 12 13 14 15 16 17 18 19 20 21 22 23 24 25 26 27 28
755
FTUS43 KILX 191048 AAA
TAFSPI
TAF AMD
KSPI 191048Z 1911/2006 14007KT 6SM BR FEW090 OVC110
     FM191300 16005KT 5SM BR BKN060
     FM191600 12006KT P6SM VCSH OVC025
     FM191800 11007KT 3SM -SHRA BR OVC015
     FM192300 09007KT 3SM -SHRA BR OVC003=

USA.gov is the U.S. government's official web portal to all federal, state and local government web resources and services.